Allenton, Wisconsin
Current Conditions -  °F | °C
As of 6:30 AM on Sunday 21 Dec 2014 (Local Time) from KETB Reporting Station
Haze Haze  
Wind Chill: -3°   Ceiling: 2300
Heat Index:   Visibility: 5mi
Dew Point: -2°   Wind: 6mph
Humidity: 87%   Direction: 160°SSE
Pressure: 30.16"   Gusts: NA
Location:  43.42°N, 88.34°W
Report Text: KETB 211230Z AUTO 16005KT 5SM BR SCT011 OVC023 00/M02 A3016 RMK AO2
Loading
Personal Weather Stations






























Interactive Weather Map New forecast layout! Learn more

10-Day Weather Forecast

Advertisements
Track Severe Weather on mobile